createdAt,value
2022-12-09T00:02:22.597Z,14.23
2022-12-09T00:04:49.888Z,14.83
2022-12-09T00:07:17.116Z,13.47
2022-12-09T00:09:44.012Z,15.20
2022-12-09T00:12:11.132Z,15.27
2022-12-09T00:14:38.109Z,13.67
2022-12-09T00:17:05.149Z,14.60
2022-12-09T00:19:34.504Z,16.00
2022-12-09T00:22:01.520Z,16.50
2022-12-09T00:24:28.577Z,16.97
2022-12-09T00:26:55.547Z,16.50
2022-12-09T00:29:22.401Z,16.10
2022-12-09T00:31:49.667Z,15.47
2022-12-09T00:34:16.754Z,15.53
2022-12-09T00:36:43.694Z,16.40
2022-12-09T00:39:12.732Z,15.50
2022-12-09T00:41:40.533Z,16.23
2022-12-09T00:44:08.337Z,15.10
2022-12-09T00:46:35.491Z,15.87
2022-12-09T00:49:04.530Z,15.60
2022-12-09T00:51:31.599Z,15.10
2022-12-09T00:53:58.930Z,14.40
2022-12-09T00:56:31.033Z,14.70
2022-12-09T00:58:59.914Z,15.20
2022-12-09T01:01:27.749Z,15.80
2022-12-09T01:03:55.330Z,16.40
2022-12-09T01:06:24.548Z,17.47
2022-12-09T01:08:52.210Z,17.30
2022-12-09T01:11:22.034Z,15.00
2022-12-09T01:13:50.544Z,14.50
2022-12-09T01:16:20.566Z,14.87
2022-12-09T01:18:47.971Z,15.43
2022-12-09T01:21:15.267Z,14.57
2022-12-09T01:23:42.445Z,14.20
2022-12-09T01:26:10.136Z,14.70
2022-12-09T01:28:38.902Z,14.73
2022-12-09T01:31:16.499Z,14.40
2022-12-09T01:33:43.668Z,14.73
2022-12-09T01:36:15.129Z,14.10
2022-12-09T01:38:42.483Z,14.33
2022-12-09T01:41:09.535Z,14.17
2022-12-09T01:43:38.793Z,13.70
2022-12-09T01:46:06.178Z,14.50
2022-12-09T01:48:38.396Z,13.90
2022-12-09T01:51:13.041Z,14.10
2022-12-09T01:53:44.621Z,14.57
2022-12-09T01:56:20.022Z,14.73
2022-12-09T01:58:48.522Z,14.17
2022-12-09T02:01:17.338Z,14.20
2022-12-09T02:03:44.707Z,14.90
2022-12-09T02:06:11.679Z,14.13
2022-12-09T02:08:38.762Z,15.47
2022-12-09T02:11:30.122Z,13.80
2022-12-09T02:14:06.142Z,13.30
2022-12-09T02:16:41.015Z,14.30
2022-12-09T02:19:14.340Z,14.83
2022-12-09T02:22:03.580Z,14.23
2022-12-09T02:25:01.411Z,13.90
2022-12-09T02:27:43.322Z,16.00
2022-12-09T02:30:21.432Z,14.57
2022-12-09T02:33:01.391Z,14.27
2022-12-09T02:35:42.783Z,14.77
2022-12-09T02:38:22.862Z,13.67
2022-12-09T02:41:03.594Z,15.20
2022-12-09T02:43:34.844Z,16.40
2022-12-09T02:46:04.437Z,14.80
2022-12-09T02:48:37.188Z,15.43
2022-12-09T02:51:09.741Z,16.30
2022-12-09T02:53:38.781Z,16.67
2022-12-09T02:56:08.320Z,16.10
2022-12-09T02:58:35.833Z,16.57
2022-12-09T03:01:02.931Z,16.47
2022-12-09T03:03:33.839Z,15.63
2022-12-09T03:06:14.460Z,15.70
2022-12-09T03:09:17.087Z,16.83
2022-12-09T03:11:44.955Z,15.50
2022-12-09T03:14:27.233Z,15.93
2022-12-09T03:17:00.498Z,16.33
2022-12-09T03:19:56.160Z,16.63
2022-12-09T03:22:29.555Z,16.30
2022-12-09T03:25:03.532Z,15.97
2022-12-09T03:27:37.227Z,14.90
2022-12-09T03:30:07.323Z,14.70
2022-12-09T03:32:37.688Z,15.50
2022-12-09T03:35:21.358Z,15.80
2022-12-09T03:37:51.289Z,15.23
2022-12-09T03:40:24.365Z,15.70
2022-12-09T03:43:14.605Z,15.60
2022-12-09T03:45:42.447Z,14.90
2022-12-09T03:48:10.946Z,15.93
2022-12-09T03:50:47.253Z,15.60
2022-12-09T03:53:18.547Z,15.53
2022-12-09T03:55:53.334Z,22.40
2022-12-09T03:58:20.493Z,37.50
2022-12-09T04:00:49.162Z,17.57
2022-12-09T04:03:18.762Z,16.20
2022-12-09T04:05:45.811Z,14.50
2022-12-09T04:08:12.980Z,16.73
2022-12-09T04:10:40.307Z,17.70
2022-12-09T04:13:07.396Z,16.87
2022-12-09T04:15:34.642Z,16.33
2022-12-09T04:18:01.693Z,17.10
2022-12-09T04:20:28.720Z,16.73
2022-12-09T04:22:56.396Z,17.10
2022-12-09T04:25:23.197Z,17.50
2022-12-09T04:27:50.445Z,17.03
2022-12-09T04:30:17.710Z,17.80
2022-12-09T04:32:45.042Z,18.00
2022-12-09T04:35:12.025Z,17.00
2022-12-09T04:37:39.040Z,17.50
2022-12-09T04:40:07.958Z,17.30
2022-12-09T04:42:35.344Z,15.80
2022-12-09T04:45:02.990Z,18.00
2022-12-09T04:47:30.016Z,17.73
2022-12-09T04:49:57.097Z,17.50
2022-12-09T04:52:24.035Z,17.47
2022-12-09T04:54:51.269Z,18.73
2022-12-09T04:57:18.921Z,16.90
2022-12-09T04:59:45.900Z,17.37
2022-12-09T05:02:13.622Z,39.50
2022-12-09T05:04:43.050Z,19.23
2022-12-09T05:07:11.765Z,15.70
2022-12-09T05:09:39.091Z,16.00
2022-12-09T05:12:06.447Z,15.90
2022-12-09T05:14:33.398Z,17.10
2022-12-09T05:17:00.775Z,16.73
2022-12-09T05:19:28.005Z,16.63
2022-12-09T05:21:55.192Z,16.80
2022-12-09T05:24:22.412Z,16.53
2022-12-09T05:26:49.567Z,17.10
2022-12-09T05:29:22.388Z,15.93
2022-12-09T05:31:51.736Z,15.13
2022-12-09T05:34:19.416Z,16.20
2022-12-09T05:36:46.853Z,16.20
2022-12-09T05:39:13.995Z,17.40
2022-12-09T05:41:41.188Z,16.63
2022-12-09T05:44:08.253Z,15.77
2022-12-09T05:46:35.314Z,17.03
2022-12-09T05:49:02.912Z,16.00
2022-12-09T05:51:30.742Z,17.67
2022-12-09T05:54:01.946Z,18.00
2022-12-09T05:56:29.164Z,17.00
2022-12-09T05:58:57.225Z,17.60
2022-12-09T06:01:25.954Z,18.87
2022-12-09T06:03:54.202Z,18.40
2022-12-09T06:06:23.942Z,20.63
2022-12-09T06:08:56.460Z,20.23
2022-12-09T06:11:24.041Z,19.43
2022-12-09T06:13:51.936Z,18.60
2022-12-09T06:16:21.438Z,19.17
2022-12-09T06:18:49.407Z,18.90
2022-12-09T06:21:18.407Z,20.57
2022-12-09T06:23:45.624Z,20.73
2022-12-09T06:26:27.627Z,20.07
2022-12-09T06:28:55.633Z,19.57
2022-12-09T06:31:23.405Z,19.10
2022-12-09T06:33:56.024Z,18.20
2022-12-09T06:36:26.089Z,19.53
2022-12-09T06:38:53.433Z,20.93
2022-12-09T06:41:20.670Z,19.43
2022-12-09T06:43:47.659Z,18.90
2022-12-09T06:46:17.179Z,20.47
2022-12-09T06:48:45.394Z,19.70
2022-12-09T06:51:12.892Z,19.03
2022-12-09T06:53:40.255Z,20.60
2022-12-09T06:56:12.123Z,20.17
2022-12-09T06:58:42.126Z,20.40
2022-12-09T07:01:14.793Z,20.40
2022-12-09T07:03:47.787Z,21.37
2022-12-09T07:06:36.356Z,21.50
2022-12-09T07:09:10.421Z,21.13
2022-12-09T07:11:37.848Z,21.10
2022-12-09T07:14:05.320Z,21.13
2022-12-09T07:16:32.818Z,22.87
2022-12-09T07:19:00.243Z,22.40
2022-12-09T07:21:28.411Z,21.40
2022-12-09T07:23:58.865Z,22.83
2022-12-09T07:26:26.221Z,22.47
2022-12-09T07:28:53.251Z,22.17
2022-12-09T07:31:29.654Z,22.37
2022-12-09T07:33:58.724Z,20.93
2022-12-09T07:36:28.790Z,22.57
2022-12-09T07:39:08.440Z,21.40
2022-12-09T07:41:35.954Z,20.20
2022-12-09T07:44:03.433Z,22.47
2022-12-09T07:46:30.805Z,22.27
2022-12-09T07:48:58.659Z,21.50
2022-12-09T07:51:26.045Z,21.50
2022-12-09T07:53:53.755Z,21.53
2022-12-09T07:56:22.388Z,22.00
2022-12-09T07:58:53.403Z,22.10
2022-12-09T08:01:26.932Z,20.30
2022-12-09T08:03:55.514Z,21.37
2022-12-09T08:06:25.077Z,21.67
2022-12-09T08:08:52.994Z,22.63
2022-12-09T08:11:23.475Z,22.80
2022-12-09T08:13:51.716Z,21.77
2022-12-09T08:16:21.561Z,21.30
2022-12-09T08:18:49.763Z,20.60
2022-12-09T08:21:21.224Z,19.60
2022-12-09T08:23:49.327Z,20.30
2022-12-09T08:26:18.683Z,20.40
2022-12-09T08:28:46.754Z,21.03
2022-12-09T08:31:16.919Z,19.90
2022-12-09T08:33:44.914Z,19.97
2022-12-09T08:36:19.188Z,18.70
2022-12-09T08:38:46.816Z,19.37
2022-12-09T08:41:22.982Z,20.60
2022-12-09T08:43:50.036Z,19.80
2022-12-09T08:46:17.131Z,20.60
2022-12-09T08:48:44.660Z,20.07
2022-12-09T08:51:12.521Z,19.60
2022-12-09T08:53:40.152Z,19.60
2022-12-09T08:56:09.688Z,21.40
2022-12-09T08:58:37.455Z,19.80
2022-12-09T09:01:05.589Z,20.93
2022-12-09T09:03:33.285Z,20.20
2022-12-09T09:06:09.577Z,19.87
2022-12-09T09:08:39.158Z,19.33
2022-12-09T09:11:20.661Z,20.97
2022-12-09T09:13:51.725Z,19.20
2022-12-09T09:16:21.793Z,19.77
2022-12-09T09:18:49.857Z,20.37
2022-12-09T09:21:20.317Z,21.30
2022-12-09T09:23:48.095Z,20.67
2022-12-09T09:26:17.878Z,19.43
2022-12-09T09:28:45.856Z,19.93
2022-12-09T09:31:15.328Z,20.83
2022-12-09T09:33:43.512Z,19.70
2022-12-09T09:36:14.885Z,19.47
2022-12-09T09:38:42.457Z,19.00
2022-12-09T09:41:33.377Z,17.53
2022-12-09T09:44:01.063Z,19.00
2022-12-09T09:46:36.353Z,19.27
2022-12-09T09:49:08.469Z,19.23
2022-12-09T09:51:36.037Z,19.20
2022-12-09T09:54:08.349Z,18.63
2022-12-09T09:56:43.956Z,19.37
2022-12-09T09:59:31.766Z,18.63
2022-12-09T10:02:19.638Z,19.37
2022-12-09T10:05:24.641Z,18.87
2022-12-09T10:07:57.313Z,17.60
2022-12-09T10:10:33.567Z,17.83
2022-12-09T10:13:43.184Z,18.50
2022-12-09T10:16:31.177Z,19.60
2022-12-09T10:19:32.001Z,18.40
2022-12-09T10:22:05.812Z,19.07
2022-12-09T10:24:40.107Z,19.73
2022-12-09T10:27:23.264Z,18.77
2022-12-09T10:30:07.440Z,19.03
2022-12-09T10:32:37.561Z,18.60
2022-12-09T10:35:20.000Z,19.50
2022-12-09T10:37:49.807Z,18.10
2022-12-09T10:40:21.397Z,17.73
2022-12-09T10:43:16.062Z,19.40
2022-12-09T10:48:47.979Z,18.83
2022-12-09T10:51:19.648Z,18.60
2022-12-09T10:53:57.055Z,18.50
2022-12-09T10:56:34.246Z,18.30
2022-12-09T10:59:13.711Z,16.60
2022-12-09T11:01:52.822Z,18.10
2022-12-09T11:04:41.808Z,19.40
2022-12-09T11:07:26.115Z,18.40
2022-12-09T11:10:00.714Z,18.00
2022-12-09T11:12:30.865Z,18.07
2022-12-09T11:15:12.881Z,16.93
2022-12-09T11:17:56.058Z,17.60
2022-12-09T11:20:27.607Z,16.23
2022-12-09T11:23:05.252Z,16.60
2022-12-09T11:25:35.376Z,16.53
2022-12-09T11:28:25.535Z,16.60
2022-12-09T11:31:27.889Z,15.83
2022-12-09T11:33:52.550Z,16.20
2022-12-09T11:36:29.856Z,16.60
2022-12-09T11:39:29.508Z,17.00
2022-12-09T11:42:25.829Z,16.80
2022-12-09T11:44:56.722Z,17.07
2022-12-09T11:50:36.561Z,17.27
2022-12-09T11:53:12.646Z,16.30
2022-12-09T11:55:49.459Z,16.00
2022-12-09T11:58:40.164Z,15.50
2022-12-09T12:01:32.384Z,16.07
2022-12-09T12:04:04.814Z,16.37
2022-12-09T12:06:47.225Z,16.07
2022-12-09T12:09:26.875Z,17.60
2022-12-09T12:12:13.953Z,17.30
2022-12-09T12:14:43.261Z,16.57
2022-12-09T12:17:26.023Z,15.70
2022-12-09T12:19:56.374Z,15.73
2022-12-09T12:22:55.032Z,16.73
2022-12-09T12:26:02.531Z,15.40
2022-12-09T12:28:41.554Z,17.23
2022-12-09T12:31:08.378Z,15.13
2022-12-09T12:34:07.646Z,16.00
2022-12-09T12:36:50.331Z,16.00
2022-12-09T12:39:35.903Z,14.73
2022-12-09T12:42:24.373Z,16.07
2022-12-09T12:45:12.843Z,15.37
2022-12-09T12:48:09.883Z,15.97
2022-12-09T12:50:38.781Z,16.10
2022-12-09T12:53:14.228Z,17.40
2022-12-09T12:55:51.120Z,16.50
2022-12-09T12:58:42.055Z,16.70
2022-12-09T13:01:40.357Z,16.23
2022-12-09T13:04:21.088Z,15.87
2022-12-09T13:06:54.709Z,16.07
2022-12-09T13:09:37.223Z,14.60
2022-12-09T13:12:15.592Z,16.40
2022-12-09T13:14:52.865Z,16.57
2022-12-09T13:17:29.466Z,15.83
2022-12-09T13:20:00.846Z,16.57
2022-12-09T13:22:47.651Z,14.93
2022-12-09T13:25:17.566Z,14.50
2022-12-09T13:28:04.062Z,14.70
2022-12-09T13:30:54.775Z,13.00
2022-12-09T13:33:28.766Z,14.20
2022-12-09T13:35:55.641Z,14.73
2022-12-09T13:38:40.719Z,15.87
2022-12-09T13:41:59.840Z,13.80
2022-12-09T13:44:32.566Z,13.63
2022-12-09T13:47:23.229Z,15.00
2022-12-09T13:50:02.490Z,14.70
2022-12-09T13:52:51.900Z,13.47
2022-12-09T13:55:48.315Z,13.03
2022-12-09T13:58:37.033Z,13.70
2022-12-09T14:01:16.961Z,13.70
2022-12-09T14:04:16.775Z,12.57
2022-12-09T14:06:46.410Z,13.63
2022-12-09T14:09:22.279Z,14.10
2022-12-09T14:11:56.954Z,13.20
2022-12-09T14:14:23.717Z,12.73
2022-12-09T14:17:16.712Z,12.83
2022-12-09T14:20:01.576Z,12.73
2022-12-09T14:22:31.287Z,12.50
2022-12-09T14:25:18.970Z,12.70
2022-12-09T14:28:11.935Z,13.10
2022-12-09T14:30:50.060Z,13.07
2022-12-09T14:33:35.333Z,13.60
2022-12-09T14:36:14.193Z,12.70
2022-12-09T14:41:54.879Z,12.10
2022-12-09T14:44:33.967Z,12.20
2022-12-09T14:47:18.592Z,12.20
2022-12-09T14:49:49.234Z,12.30
2022-12-09T14:52:30.213Z,12.40
2022-12-09T14:54:59.946Z,12.60
2022-12-09T14:57:32.409Z,12.20
2022-12-09T14:59:59.292Z,11.80
2022-12-09T15:02:31.854Z,12.20
2022-12-09T15:05:01.144Z,13.20
2022-12-09T15:07:32.779Z,12.40
2022-12-09T15:10:17.525Z,12.20
2022-12-09T15:12:50.596Z,12.27
2022-12-09T15:15:26.353Z,12.17
2022-12-09T15:18:13.394Z,12.50
2022-12-09T15:20:48.061Z,13.27
2022-12-09T15:23:23.807Z,12.63
2022-12-09T15:26:02.186Z,12.70
2022-12-09T15:28:31.588Z,13.40
2022-12-09T15:31:22.056Z,12.80
2022-12-09T15:34:00.334Z,13.47
2022-12-09T15:36:35.773Z,12.90
2022-12-09T15:39:18.209Z,14.00
2022-12-09T15:42:06.716Z,13.77
2022-12-09T15:44:53.509Z,13.70
2022-12-09T15:47:28.616Z,14.60
2022-12-09T15:50:22.583Z,13.57
2022-12-09T15:52:51.770Z,14.60
2022-12-09T15:55:45.998Z,14.00
2022-12-09T15:58:15.303Z,18.10
2022-12-09T16:00:48.744Z,15.67
2022-12-09T16:03:20.011Z,13.90
2022-12-09T16:06:08.334Z,14.67
2022-12-09T16:08:44.124Z,14.23
2022-12-09T16:11:12.198Z,14.33
2022-12-09T16:14:09.347Z,13.27
2022-12-09T16:17:01.482Z,13.50
2022-12-09T16:19:31.639Z,14.03
2022-12-09T16:22:05.071Z,13.57
2022-12-09T16:24:58.039Z,12.90
2022-12-09T16:27:23.101Z,14.13
2022-12-09T16:29:54.145Z,14.67
2022-12-09T16:32:34.306Z,15.20
2022-12-09T16:35:43.058Z,13.40
2022-12-09T16:38:09.812Z,13.40
2022-12-09T16:40:45.327Z,13.73
2022-12-09T16:43:18.283Z,14.87
2022-12-09T16:45:56.962Z,15.43
2022-12-09T16:48:26.612Z,16.00
2022-12-09T16:51:12.002Z,14.73
2022-12-09T16:53:50.069Z,13.93
2022-12-09T16:56:19.316Z,13.63
2022-12-09T16:58:46.591Z,12.70
2022-12-09T17:01:15.019Z,13.20
2022-12-09T17:03:50.044Z,13.00
2022-12-09T17:06:18.795Z,14.20
2022-12-09T17:08:45.852Z,13.77
2022-12-09T17:11:13.510Z,13.37
2022-12-09T17:13:40.797Z,16.10
2022-12-09T17:16:08.114Z,17.33
2022-12-09T17:18:35.164Z,16.93
2022-12-09T17:21:09.188Z,15.57
2022-12-09T17:23:40.081Z,13.90
2022-12-09T17:26:09.269Z,14.43
2022-12-09T17:28:37.156Z,14.07
2022-12-09T17:31:09.510Z,14.13
2022-12-09T17:33:36.947Z,14.50
2022-12-09T17:36:04.578Z,14.37
2022-12-09T17:38:31.454Z,14.33
2022-12-09T17:41:06.598Z,16.10
2022-12-09T17:43:33.849Z,14.80
2022-12-09T17:46:02.460Z,14.80
2022-12-09T17:48:30.644Z,14.60
2022-12-09T17:50:57.661Z,14.50
2022-12-09T17:53:24.911Z,14.60
2022-12-09T17:55:51.809Z,14.10
2022-12-09T17:58:18.669Z,13.83
2022-12-09T18:00:46.303Z,12.70
2022-12-09T18:03:17.802Z,12.10
2022-12-09T18:05:49.191Z,12.40
2022-12-09T18:08:16.163Z,13.23
2022-12-09T18:10:44.256Z,13.30
2022-12-09T18:13:11.053Z,13.13
2022-12-09T18:15:37.955Z,13.40
2022-12-09T18:18:05.355Z,13.23
2022-12-09T18:20:32.204Z,12.67
2022-12-09T18:22:59.011Z,12.90
2022-12-09T18:25:25.820Z,12.90
2022-12-09T18:27:52.656Z,13.37
2022-12-09T18:30:19.496Z,12.77
2022-12-09T18:32:46.501Z,12.50
2022-12-09T18:35:13.443Z,12.70
2022-12-09T18:37:40.256Z,14.00
2022-12-09T18:40:07.796Z,13.20
2022-12-09T18:42:34.840Z,12.87
2022-12-09T18:45:01.969Z,11.87
2022-12-09T18:47:28.833Z,15.60
2022-12-09T18:49:55.708Z,13.40
2022-12-09T18:52:23.410Z,14.00
2022-12-09T18:54:50.279Z,14.93
2022-12-09T18:57:17.110Z,15.20
2022-12-09T18:59:44.025Z,16.13
2022-12-09T19:02:11.868Z,18.37
2022-12-09T19:04:38.774Z,18.37
2022-12-09T19:07:05.675Z,17.67
2022-12-09T19:09:34.978Z,16.83
2022-12-09T19:12:30.034Z,16.00
2022-12-09T19:14:50.591Z,15.40
2022-12-09T19:17:18.830Z,16.20
2022-12-09T19:19:47.310Z,15.20
2022-12-09T19:22:14.650Z,15.10
2022-12-09T19:24:43.446Z,13.13
2022-12-09T19:27:10.899Z,14.20
2022-12-09T19:29:37.884Z,15.47
2022-12-09T19:32:13.882Z,14.20
2022-12-09T19:34:50.724Z,14.07
2022-12-09T19:37:17.562Z,16.57
2022-12-09T19:39:46.547Z,17.43
2022-12-09T19:42:13.409Z,16.23
2022-12-09T19:47:27.114Z,14.80
2022-12-09T19:49:53.963Z,16.17
2022-12-09T19:52:21.029Z,16.13
2022-12-09T19:54:47.916Z,15.20
2022-12-09T19:57:14.954Z,15.13
2022-12-09T19:59:41.790Z,15.63
2022-12-09T20:02:12.137Z,15.23
2022-12-09T20:04:48.859Z,15.77
2022-12-09T20:07:16.835Z,14.60
2022-12-09T20:09:43.724Z,14.17
2022-12-09T20:12:10.711Z,15.17
2022-12-09T20:14:38.955Z,15.53
2022-12-09T20:17:05.847Z,15.47
2022-12-09T20:19:32.812Z,15.50
2022-12-09T20:21:59.634Z,14.73
2022-12-09T20:24:26.850Z,14.30
2022-12-09T20:26:55.154Z,14.00
2022-12-09T20:29:21.977Z,15.93
2022-12-09T20:31:48.784Z,14.40
2022-12-09T20:34:16.672Z,14.00
2022-12-09T20:36:44.689Z,14.00
2022-12-09T20:39:15.200Z,15.70
2022-12-09T20:41:43.671Z,14.60
2022-12-09T20:44:12.052Z,14.70
2022-12-09T20:46:40.183Z,15.73
2022-12-09T20:49:07.603Z,15.27
2022-12-09T20:51:37.425Z,15.30
2022-12-09T20:54:05.529Z,14.70
2022-12-09T20:56:32.988Z,15.30
2022-12-09T20:59:00.390Z,15.00
2022-12-09T21:01:35.775Z,15.47
2022-12-09T21:04:05.333Z,17.50
2022-12-09T21:06:34.864Z,15.43
2022-12-09T21:09:03.434Z,15.20
2022-12-09T21:11:30.562Z,15.57
2022-12-09T21:13:59.547Z,14.90
2022-12-09T21:16:29.170Z,15.27
2022-12-09T21:18:58.692Z,15.37
2022-12-09T21:21:28.647Z,15.40
2022-12-09T21:23:55.645Z,17.53
2022-12-09T21:26:24.248Z,16.13
2022-12-09T21:28:52.151Z,16.50
2022-12-09T21:31:27.816Z,15.43
2022-12-09T21:33:56.904Z,14.07
2022-12-09T21:36:27.094Z,14.80
2022-12-09T21:38:54.627Z,14.27
2022-12-09T21:41:26.471Z,13.87
2022-12-09T21:43:55.070Z,15.40
2022-12-09T21:46:34.593Z,16.27
2022-12-09T21:49:04.323Z,15.10
2022-12-09T21:51:32.367Z,15.30
2022-12-09T21:53:59.443Z,14.80
2022-12-09T21:56:30.323Z,14.70
2022-12-09T21:58:59.023Z,14.77
2022-12-09T22:01:28.965Z,14.50
2022-12-09T22:03:56.946Z,14.30
2022-12-09T22:06:23.815Z,14.13
2022-12-09T22:08:51.113Z,14.23
2022-12-09T22:11:30.190Z,13.77
2022-12-09T22:14:01.236Z,13.80
2022-12-09T22:16:34.128Z,13.60
2022-12-09T22:19:02.700Z,13.10
2022-12-09T22:21:31.384Z,12.20
2022-12-09T22:24:00.816Z,12.30
2022-12-09T22:26:28.675Z,13.20
2022-12-09T22:28:56.905Z,12.50
2022-12-09T22:31:27.612Z,13.93
2022-12-09T22:33:58.786Z,12.13
2022-12-09T22:36:25.930Z,12.40
2022-12-09T22:38:53.725Z,11.80
2022-12-09T22:41:23.077Z,13.17
2022-12-09T22:43:50.786Z,13.80
2022-12-09T22:46:29.488Z,13.00
2022-12-09T22:48:58.040Z,13.07
2022-12-09T22:51:28.137Z,13.23
2022-12-09T22:53:56.732Z,13.13
2022-12-09T22:56:24.973Z,11.13
2022-12-09T22:58:52.358Z,12.30
2022-12-09T23:01:28.434Z,11.50
2022-12-09T23:03:56.330Z,12.33
2022-12-09T23:06:24.090Z,12.13
2022-12-09T23:08:51.500Z,13.63
2022-12-09T23:11:21.491Z,12.40
2022-12-09T23:13:49.007Z,12.30
2022-12-09T23:16:18.853Z,12.37
2022-12-09T23:18:45.929Z,13.60
2022-12-09T23:21:22.019Z,12.50
2022-12-09T23:23:51.734Z,12.30
2022-12-09T23:26:20.608Z,14.50
2022-12-09T23:28:50.539Z,14.33
2022-12-09T23:31:19.854Z,13.67
2022-12-09T23:33:47.867Z,12.50
2022-12-09T23:36:17.935Z,13.03
2022-12-09T23:38:45.999Z,12.40
2022-12-09T23:41:12.857Z,13.77
2022-12-09T23:43:39.790Z,12.27
2022-12-09T23:46:15.752Z,13.20
2022-12-09T23:48:44.264Z,12.57
2022-12-09T23:51:16.544Z,12.80
2022-12-09T23:53:44.537Z,12.30
2022-12-09T23:56:16.244Z,12.37
2022-12-09T23:58:43.364Z,10.90
